Time;durP1;ratioP1;P1;durP2;ratioP2;P2;SDS_P1;SDS_P2;PMS_P1;PMS_P2;Temp;Humidity;BMP_temperature;BMP_pressure;BME280_temperature;BME280_humidity;BME280_pressure;Samples;Min_cycle;Max_cycle;Signal;HPM_P1;HPM_P2
2021/01/20 00:01:26;;;;;;;5.00;4.70;;;;;;;6.10;86.24;99339.91;4993822;28;20228;-74
2021/01/20 00:03:52;;;;;;;5.10;4.80;;;;;;;6.15;85.55;99330.84;4993759;28;20205;-73
2021/01/20 00:06:17;;;;;;;5.90;5.50;;;;;;;6.07;86.18;99335.06;4975775;28;20185;-73
2021/01/20 00:08:42;;;;;;;5.70;5.20;;;;;;;6.10;85.31;99339.91;4993730;28;20199;-73
2021/01/20 00:11:08;;;;;;;4.07;3.67;;;;;;;6.09;84.78;99342.94;4993584;28;20213;-73
2021/01/20 00:13:33;;;;;;;3.50;3.20;;;;;;;6.07;84.70;99342.41;4993636;28;20228;-76
2021/01/20 00:15:58;;;;;;;5.30;4.97;;;;;;;6.05;85.17;99352.78;4993405;28;20181;-78
2021/01/20 00:18:24;;;;;;;4.97;4.57;;;;;;;6.00;84.90;99342.84;4992982;28;20327;-73
2021/01/20 00:20:49;;;;;;;5.43;5.03;;;;;;;5.83;85.70;99329.94;4993536;28;20188;-73
2021/01/20 00:23:14;;;;;;;3.77;3.47;;;;;;;5.93;84.91;99335.16;4993392;28;20635;-72
2021/01/20 00:25:40;;;;;;;3.80;3.50;;;;;;;5.91;84.33;99329.22;4993546;28;20656;-73
2021/01/20 00:28:05;;;;;;;5.00;4.63;;;;;;;5.89;84.62;99323.28;4992997;28;20316;-74
2021/01/20 00:30:31;;;;;;;5.73;5.30;;;;;;;5.81;84.77;99318.63;4993515;28;20184;-73
2021/01/20 00:32:58;;;;;;;2.83;2.63;;;;;;;5.86;84.04;99323.91;4975628;28;20652;-73
2021/01/20 00:35:24;;;;;;;5.93;5.53;;;;;;;5.79;84.11;99328.97;4992844;28;20258;-74
2021/01/20 00:37:49;;;;;;;6.00;5.60;;;;;;;5.76;nan;99337.69;4993180;28;20659;-73
2021/01/20 00:40:15;;;;;;;3.23;2.93;;;;;;;5.82;84.14;99344.59;4975599;28;20685;-76
2021/01/20 00:42:40;;;;;;;5.17;4.87;;;;;;;5.84;83.77;99328.03;4993272;28;20181;-73
2021/01/20 00:45:07;;;;;;;5.80;5.50;;;;;;;5.81;83.93;99331.38;4992310;28;20553;-73
2021/01/20 00:47:32;;;;;;;4.83;4.43;;;;;;;5.90;82.29;99333.03;4992734;28;20185;-74
2021/01/20 00:49:58;;;;;;;5.00;4.67;;;;;;;5.90;82.43;99326.81;4993242;28;20275;-73
2021/01/20 00:52:24;;;;;;;5.57;5.17;;;;;;;5.79;82.36;99323.53;4992417;28;20655;-74
2021/01/20 00:54:49;;;;;;;5.23;4.60;;;;;;;5.77;83.29;99322.22;4992188;28;20189;-78
2021/01/20 00:57:14;;;;;;;6.23;5.83;;;;;;;5.70;83.20;99319.97;4992483;28;20189;-75
2021/01/20 00:59:40;;;;;;;5.00;4.50;;;;;;;5.79;82.36;99309.19;4991647;28;20184;-75
2021/01/20 01:02:05;;;;;;;4.97;4.60;;;;;;;5.76;82.49;99302.47;4992811;28;20181;-76
2021/01/20 01:04:30;;;;;;;5.33;5.03;;;;;;;5.58;83.38;99292.59;4992886;28;20300;-74
2021/01/20 01:06:58;;;;;;;5.23;4.83;;;;;;;5.61;83.69;99292.78;4992367;28;20543;-75
2021/01/20 01:09:23;;;;;;;5.00;4.60;;;;;;;5.59;83.41;99288.78;4992474;28;20503;-82
2021/01/20 01:11:49;;;;;;;5.37;4.97;;;;;;;5.65;82.96;99288.38;4993036;28;20177;-73
2021/01/20 01:14:14;;;;;;;4.80;4.20;;;;;;;5.72;83.03;99281.72;4992598;28;20525;-72
2021/01/20 01:16:40;;;;;;;4.70;4.37;;;;;;;5.73;82.45;99275.19;4992281;28;20173;-74
2021/01/20 01:19:06;;;;;;;4.83;4.43;;;;;;;5.72;82.06;99260.84;4992521;28;20177;-74
2021/01/20 01:21:31;;;;;;;5.03;4.67;;;;;;;5.68;82.53;99281.53;4992406;28;20185;-73
2021/01/20 01:23:56;;;;;;;4.53;4.23;;;;;;;5.63;82.58;99278.91;4992246;28;20263;-74
2021/01/20 01:26:22;;;;;;;3.03;2.83;;;;;;;5.65;82.35;99280.25;4992022;28;20227;-73
2021/01/20 01:28:47;;;;;;;3.50;3.00;;;;;;;5.68;81.82;99276.13;4992247;28;20213;-73
2021/01/20 01:31:12;;;;;;;4.10;3.80;;;;;;;5.72;81.51;99266.25;4992287;28;20177;-73
2021/01/20 01:33:38;;;;;;;4.23;3.90;;;;;;;5.71;82.23;99272.78;4992146;28;20189;-73
2021/01/20 01:36:04;;;;;;;4.00;3.70;;;;;;;5.54;82.35;99264.53;4992009;28;20177;-74
2021/01/20 01:38:29;;;;;;;4.20;3.90;;;;;;;5.60;81.40;99266.00;4991866;28;20187;-76
2021/01/20 01:40:54;;;;;;;4.67;4.20;;;;;;;5.45;83.00;99264.44;4992017;28;20189;-73
2021/01/20 01:43:20;;;;;;;4.93;4.40;;;;;;;5.51;82.47;99268.66;4991010;28;20258;-74
2021/01/20 01:45:45;;;;;;;3.97;3.77;;;;;;;5.58;82.65;99260.09;4991868;28;20178;-74
2021/01/20 01:48:11;;;;;;;4.07;3.70;;;;;;;5.56;82.11;99252.28;4990742;28;20641;-73
2021/01/20 01:50:37;;;;;;;4.60;4.30;;;;;;;5.53;81.93;99247.47;4991910;28;20188;-73
2021/01/20 01:53:02;;;;;;;4.80;3.97;;;;;;;5.41;82.56;99247.22;4991685;28;20277;-76
2021/01/20 01:55:28;;;;;;;4.80;2.17;;;;;;;5.57;82.09;99237.63;4991724;28;20177;-75
2021/01/20 01:57:53;;;;;;;4.40;4.00;;;;;;;5.40;82.25;99239.41;4991250;28;20184;-73
2021/01/20 02:00:19;;;;;;;3.90;3.60;;;;;;;5.40;81.86;99242.91;4991701;28;20268;-73
2021/01/20 02:02:48;;;;;;;4.10;3.80;;;;;;;5.34;82.97;99239.50;4991631;28;20177;-74
2021/01/20 02:05:14;;;;;;;3.37;3.07;;;;;;;5.29;82.82;99233.41;4991869;28;20244;-73
2021/01/20 02:07:40;;;;;;;4.20;3.80;;;;;;;5.14;83.40;99226.44;4991181;28;20623;-73
2021/01/20 02:10:06;;;;;;;4.07;3.77;;;;;;;5.12;83.72;99225.94;4991548;28;20185;-74
2021/01/20 02:13:02;;;;;;;3.83;3.53;;;;;;;5.14;83.41;99222.94;4991669;28;20240;-73
2021/01/20 02:16:06;;;;;;;4.07;3.67;;;;;;;5.24;83.47;99231.63;4991541;28;20201;-74
2021/01/20 02:18:36;;;;;;;3.53;3.23;;;;;;;5.17;83.30;99223.13;4974692;28;20231;-75
2021/01/20 02:21:19;;;;;;;3.30;3.07;;;;;;;5.16;83.84;99223.41;4991416;28;20521;-74
2021/01/20 02:23:45;;;;;;;3.33;3.03;;;;;;;5.08;83.57;99216.84;4991365;28;20205;-74
2021/01/20 02:26:30;;;;;;;3.73;3.37;;;;;;;5.06;83.71;99217.16;4990909;28;20216;-74
2021/01/20 02:29:34;;;;;;;3.77;3.10;;;;;;;5.08;83.78;99228.47;4991376;28;20235;-73
2021/01/20 02:32:01;;;;;;;3.43;3.13;;;;;;;5.19;83.41;99215.47;4991263;28;20173;-73
2021/01/20 02:34:27;;;;;;;3.43;2.77;;;;;;;5.12;83.39;99212.41;4991321;28;20208;-73
2021/01/20 02:36:55;;;;;;;3.20;2.83;;;;;;;5.29;82.89;99204.44;4990814;28;20181;-76
2021/01/20 02:39:21;;;;;;;3.90;3.53;;;;;;;5.20;82.83;99197.34;4991339;28;20181;-74
2021/01/20 02:41:46;;;;;;;5.53;3.20;;;;;;;5.19;82.20;99196.53;4991202;28;20555;-72
2021/01/20 02:44:12;;;;;;;4.10;3.33;;;;;;;5.26;81.96;99198.84;4990278;28;20208;-73
2021/01/20 02:46:39;;;;;;;5.27;2.80;;;;;;;5.34;81.65;99200.78;4991030;28;20177;-73
2021/01/20 02:49:04;;;;;;;4.23;3.00;;;;;;;5.20;81.91;99214.38;4990989;28;20209;-73
2021/01/20 02:51:52;;;;;;;4.87;3.17;;;;;;;5.08;81.51;99211.44;4991070;28;20193;-73
2021/01/20 02:54:20;;;;;;;4.67;3.30;;;;;;;4.99;82.75;99215.94;4991220;28;20236;-76
2021/01/20 02:56:47;;;;;;;3.67;3.13;;;;;;;4.93;82.60;99217.97;4990616;28;20519;-73
2021/01/20 02:59:14;;;;;;;3.90;3.17;;;;;;;4.86;82.63;99227.59;4993241;28;20308;-73
2021/01/20 03:01:50;;;;;;;3.10;2.80;;;;;;;4.91;81.38;99219.38;4994728;28;20596;-74
2021/01/20 03:04:17;;;;;;;3.80;2.60;;;;;;;4.95;82.23;99223.09;4994984;28;20201;-73
2021/01/20 03:06:48;;;;;;;5.73;2.80;;;;;;;4.96;81.95;99217.38;4994418;28;20177;-73
2021/01/20 03:09:15;;;;;;;3.20;2.83;;;;;;;5.05;80.84;99199.28;4994714;28;20209;-73
2021/01/20 03:11:48;;;;;;;4.57;2.53;;;;;;;4.90;80.85;99202.31;4994903;28;20181;-73
2021/01/20 03:14:15;;;;;;;4.60;2.90;;;;;;;5.07;80.35;99201.72;4994757;28;20586;-75
2021/01/20 03:16:40;;;;;;;3.77;2.70;;;;;;;4.96;80.16;99194.91;4994233;28;20296;-73
2021/01/20 03:19:06;;;;;;;3.50;2.43;;;;;;;4.95;80.60;99190.63;4994790;28;20268;-73
2021/01/20 03:21:31;;;;;;;3.37;2.50;;;;;;;4.94;80.08;99180.91;4994661;28;20216;-75
2021/01/20 03:23:56;;;;;;;2.90;2.30;;;;;;;5.10;80.30;99189.47;4994606;28;20291;-74
2021/01/20 03:26:22;;;;;;;5.23;3.03;;;;;;;5.15;79.15;99186.63;4993721;28;20184;-73
2021/01/20 03:28:47;;;;;;;5.67;2.77;;;;;;;4.98;79.03;99193.50;4993762;28;20220;-74
2021/01/20 03:31:13;;;;;;;2.50;2.30;;;;;;;5.11;78.07;99186.44;4994451;28;20169;-74
2021/01/20 03:33:38;;;;;;;3.50;2.10;;;;;;;5.09;77.79;99185.97;4994294;28;20181;-74
2021/01/20 03:36:04;;;;;;;3.27;2.93;;;;;;;5.12;78.03;99185.34;4976839;28;20193;-73
2021/01/20 03:38:29;;;;;;;3.57;2.47;;;;;;;5.07;78.51;99188.97;4994414;28;20696;-74
2021/01/20 03:40:54;;;;;;;1.63;1.53;;;;;;;5.15;77.59;99187.44;4994286;28;20272;-73
2021/01/20 03:43:20;;;;;;;3.03;2.30;;;;;;;5.03;77.89;99181.75;4993093;28;20193;-75
2021/01/20 03:45:45;;;;;;;6.47;2.90;;;;;;;4.97;78.31;99188.41;4994168;28;20188;-73
2021/01/20 03:48:10;;;;;;;3.77;2.77;;;;;;;5.04;78.24;99197.69;4993628;28;20177;-73
2021/01/20 03:50:35;;;;;;;3.50;2.40;;;;;;;5.07;77.86;99188.97;4993948;28;20657;-73
2021/01/20 03:53:01;;;;;;;3.77;2.80;;;;;;;4.88;79.12;99185.59;4993694;28;20565;-73
2021/01/20 03:55:26;;;;;;;2.83;2.23;;;;;;;4.82;78.82;99194.16;4993926;28;20292;-73
2021/01/20 03:57:52;;;;;;;2.83;2.40;;;;;;;4.85;78.59;99180.00;4993555;28;20567;-73
2021/01/20 04:00:17;;;;;;;4.60;2.70;;;;;;;4.94;78.58;99181.69;4994004;28;20184;-72
2021/01/20 04:02:43;;;;;;;3.57;2.73;;;;;;;4.98;78.48;99176.47;4993933;28;20531;-73
2021/01/20 04:05:09;;;;;;;6.37;5.10;;;;;;;4.95;78.10;99167.06;4993725;28;20224;-73
2021/01/20 04:07:34;;;;;;;10.77;7.77;;;;;;;5.00;77.92;99174.25;4993484;28;20174;-74
2021/01/20 04:09:59;;;;;;;5.57;4.73;;;;;;;4.99;77.46;99184.28;4992789;28;20173;-75
2021/01/20 04:12:25;;;;;;;9.37;7.27;;;;;;;4.88;77.99;99182.09;4993688;28;20543;-73
2021/01/20 04:14:50;;;;;;;4.70;4.30;;;;;;;4.92;78.16;99178.50;4993613;28;20684;-73
2021/01/20 04:17:15;;;;;;;4.37;3.77;;;;;;;4.87;77.86;99173.19;4993016;28;20181;-74
2021/01/20 04:19:41;;;;;;;4.07;3.27;;;;;;;4.84;78.50;99179.19;4993504;28;20271;-74
2021/01/20 04:22:06;;;;;;;5.50;3.57;;;;;;;4.85;77.87;99166.47;4993296;28;20212;-74
2021/01/20 04:24:31;;;;;;;3.03;2.77;;;;;;;5.05;77.90;99184.94;4993461;28;20207;-74
2021/01/20 04:26:57;;;;;;;4.40;3.90;;;;;;;4.90;78.27;99169.06;4993103;28;20203;-75
2021/01/20 04:29:22;;;;;;;4.10;2.93;;;;;;;5.00;77.99;99172.34;4993386;28;20182;-73
2021/01/20 04:31:47;;;;;;;3.20;2.90;;;;;;;4.98;77.94;99179.16;4993366;28;20182;-73
2021/01/20 04:34:13;;;;;;;3.40;3.03;;;;;;;4.92;78.36;99183.06;4993196;28;20188;-73
2021/01/20 04:36:38;;;;;;;5.87;3.27;;;;;;;5.01;77.71;99173.13;4992814;28;20581;-73
2021/01/20 04:39:04;;;;;;;3.70;3.17;;;;;;;5.08;77.27;99178.94;4993164;28;20181;-73
2021/01/20 04:41:29;;;;;;;3.43;3.13;;;;;;;5.14;76.59;99174.19;4993149;28;20889;-73
2021/01/20 04:43:55;;;;;;;3.73;3.13;;;;;;;5.07;77.40;99171.94;4992124;28;20213;-73
2021/01/20 04:46:23;;;;;;;4.10;2.90;;;;;;;5.12;76.30;99171.81;4992626;28;20187;-75
2021/01/20 04:48:49;;;;;;;3.90;3.47;;;;;;;5.00;76.80;99169.63;4992775;28;20213;-73
2021/01/20 04:51:18;;;;;;;3.40;3.07;;;;;;;5.08;76.39;99171.63;4992851;28;20218;-73
2021/01/20 04:53:44;;;;;;;4.10;3.70;;;;;;;4.98;76.75;99166.44;4991321;28;20276;-74
2021/01/20 04:56:12;;;;;;;4.43;3.60;;;;;;;4.97;77.22;99169.44;4992365;28;20551;-74
2021/01/20 04:58:38;;;;;;;4.63;3.57;;;;;;;4.93;76.47;99168.47;4991357;28;20187;-73
2021/01/20 05:01:03;;;;;;;3.33;2.87;;;;;;;4.98;76.43;99173.75;4992695;28;20185;-74
2021/01/20 05:03:30;;;;;;;1.27;1.17;;;;;;;5.10;76.11;99163.19;4992398;28;20281;-73
2021/01/20 05:05:55;;;;;;;4.40;3.13;;;;;;;5.10;76.50;99163.19;4992447;28;20208;-73
2021/01/20 05:08:21;;;;;;;6.23;2.70;;;;;;;5.10;76.62;99168.59;4992349;28;20173;-73
2021/01/20 05:10:51;;;;;;;3.10;2.80;;;;;;;5.18;75.86;99159.75;4992489;28;20364;-72
2021/01/20 05:13:27;;;;;;;2.90;2.63;;;;;;;5.12;76.29;99141.22;4992500;28;20170;-74
2021/01/20 05:15:54;;;;;;;3.97;3.00;;;;;;;5.16;75.76;99142.22;4992512;28;20179;-73
2021/01/20 05:18:19;;;;;;;3.20;2.73;;;;;;;5.15;75.62;99129.78;4991679;28;20169;-73
2021/01/20 05:20:45;;;;;;;3.33;3.03;;;;;;;5.08;75.96;99135.63;4992624;28;20192;-73
2021/01/20 05:23:11;;;;;;;3.20;2.50;;;;;;;5.11;75.22;99124.19;4991299;28;20173;-74
2021/01/20 05:25:44;;;;;;;2.67;2.40;;;;;;;5.07;76.01;99125.91;4992618;28;20542;-73
2021/01/20 05:28:28;;;;;;;3.70;1.90;;;;;;;5.08;75.44;99122.09;4992138;28;20177;-73
2021/01/20 05:31:01;;;;;;;1.37;1.20;;;;;;;5.09;75.55;99123.69;4992189;28;20180;-73
2021/01/20 05:33:29;;;;;;;3.03;2.67;;;;;;;5.06;76.39;99114.28;4992334;28;20276;-73
2021/01/20 05:36:09;;;;;;;5.00;3.40;;;;;;;5.06;76.42;99114.28;4992398;28;20208;-73
2021/01/20 05:38:37;;;;;;;3.53;3.20;;;;;;;5.13;75.99;99107.63;4992207;28;20181;-76
2021/01/20 05:41:22;;;;;;;3.83;3.50;;;;;;;5.09;77.06;99118.28;4993458;28;20536;-76
2021/01/20 05:43:51;;;;;;;4.33;3.30;;;;;;;5.07;77.05;99110.47;4973483;28;20628;-77
2021/01/20 05:46:33;;;;;;;4.53;3.80;;;;;;;5.15;76.80;99105.41;4991563;28;20192;-73
2021/01/20 05:48:58;;;;;;;4.37;2.70;;;;;;;5.22;76.85;99103.09;4991888;28;20644;-77
2021/01/20 05:51:24;;;;;;;3.60;3.30;;;;;;;5.16;77.26;99102.41;4991836;28;20185;-74
2021/01/20 05:53:56;;;;;;;4.03;3.00;;;;;;;5.21;77.36;99102.28;4991920;28;20260;-73
2021/01/20 05:56:31;;;;;;;4.17;3.20;;;;;;;5.29;77.45;99100.72;4992142;28;20593;-73
2021/01/20 05:58:57;;;;;;;3.10;2.80;;;;;;;5.26;77.57;99095.94;4998514;28;20179;-74
2021/01/20 06:01:24;;;;;;;3.13;2.77;;;;;;;5.25;77.18;99095.13;4998900;28;20205;-73
2021/01/20 06:03:50;;;;;;;4.53;3.77;;;;;;;5.19;77.85;99090.94;4993773;28;20280;-73
2021/01/20 06:06:17;;;;;;;3.27;3.07;;;;;;;5.22;77.63;99090.34;4991726;28;20184;-73
2021/01/20 06:08:43;;;;;;;4.30;3.80;;;;;;;5.07;78.04;99099.66;4991779;28;20235;-73
2021/01/20 06:11:09;;;;;;;3.67;3.37;;;;;;;4.94;78.56;99095.09;4991682;28;20188;-73
2021/01/20 06:13:36;;;;;;;3.97;3.40;;;;;;;4.69;79.82;99092.97;4991684;28;20516;-73
2021/01/20 06:16:13;;;;;;;4.47;3.57;;;;;;;4.71;79.58;99094.25;4991511;28;20180;-74
2021/01/20 06:18:44;;;;;;;3.00;2.73;;;;;;;4.71;79.48;99096.97;4991510;28;20603;-73
2021/01/20 06:21:12;;;;;;;3.67;2.97;;;;;;;4.66;80.07;99094.38;4991362;28;20181;-73
2021/01/20 06:23:38;;;;;;;3.50;3.17;;;;;;;4.51;79.37;99083.91;4991530;28;20230;-73
2021/01/20 06:26:12;;;;;;;4.23;3.20;;;;;;;4.57;79.73;99095.41;4991121;28;20649;-73
2021/01/20 06:28:44;;;;;;;3.67;2.83;;;;;;;4.61;80.12;99089.06;4991341;28;20231;-73
2021/01/20 06:31:10;;;;;;;3.80;3.40;;;;;;;4.41;79.76;99086.84;4991777;28;20173;-73
2021/01/20 06:33:35;;;;;;;4.67;3.57;;;;;;;4.35;80.42;99088.88;4990821;28;20185;-73
2021/01/20 06:36:01;;;;;;;4.63;3.20;;;;;;;4.33;80.56;99092.94;4991068;28;20185;-73
2021/01/20 06:38:39;;;;;;;6.30;3.40;;;;;;;4.21;80.05;99087.28;4990749;28;20177;-73
2021/01/20 06:41:12;;;;;;;3.53;3.20;;;;;;;4.09;80.87;99079.69;4974285;28;20589;-75
2021/01/20 06:43:47;;;;;;;6.60;4.23;;;;;;;4.15;80.62;99092.78;4990868;28;20196;-73
2021/01/20 06:46:25;;;;;;;7.93;6.60;;;;;;;4.10;81.04;99092.91;4973666;28;20180;-73
2021/01/20 06:48:53;;;;;;;4.07;3.77;;;;;;;3.92;81.29;99084.91;4973945;28;20177;-73
2021/01/20 06:51:24;;;;;;;3.47;3.17;;;;;;;3.94;81.50;99088.91;4991175;28;20244;-74
2021/01/20 06:54:14;;;;;;;4.67;4.23;;;;;;;3.92;81.79;99080.31;4991175;28;20184;-73
2021/01/20 06:56:50;;;;;;;3.90;3.50;;;;;;;4.04;81.45;99082.47;4990869;28;20276;-74
2021/01/20 06:59:32;;;;;;;3.50;3.20;;;;;;;4.02;81.34;99063.88;4991260;28;20204;-75
2021/01/20 07:02:03;;;;;;;3.63;3.33;;;;;;;4.03;81.38;99064.66;4991119;28;20177;-74
2021/01/20 07:04:38;;;;;;;5.13;3.40;;;;;;;3.94;81.66;99064.59;4991035;28;20291;-72
2021/01/20 07:07:04;;;;;;;3.20;3.00;;;;;;;3.95;81.79;99063.50;4990629;28;20280;-75
2021/01/20 07:09:49;;;;;;;3.80;3.27;;;;;;;4.00;82.27;99057.16;4991308;28;20196;-75
2021/01/20 07:12:19;;;;;;;3.67;3.37;;;;;;;4.08;82.06;99062.69;4991006;28;20177;-75
2021/01/20 07:14:45;;;;;;;4.03;3.37;;;;;;;3.94;81.81;99066.50;4991028;28;20169;-76
2021/01/20 07:17:12;;;;;;;5.33;3.60;;;;;;;3.97;81.95;99068.59;4990375;28;20185;-71
2021/01/20 07:19:38;;;;;;;4.27;3.93;;;;;;;3.89;81.98;99062.78;4990751;28;20231;-77
2021/01/20 07:22:05;;;;;;;4.13;3.53;;;;;;;3.85;82.75;99064.47;4990772;28;20179;-74
2021/01/20 07:24:31;;;;;;;6.17;5.37;;;;;;;3.95;82.61;99057.28;4990516;28;20205;-77
2021/01/20 07:27:09;;;;;;;5.17;4.20;;;;;;;4.12;82.09;99060.16;4990199;28;20652;-74
2021/01/20 07:29:34;;;;;;;4.57;3.67;;;;;;;4.25;81.75;99053.13;4990751;28;20173;-74
2021/01/20 07:32:01;;;;;;;4.60;4.17;;;;;;;4.17;81.99;99047.31;4990533;28;20539;-74
2021/01/20 07:34:40;;;;;;;4.17;3.27;;;;;;;4.27;81.35;99043.59;4990643;28;20169;-73
2021/01/20 07:37:13;;;;;;;3.20;2.70;;;;;;;4.37;80.45;99051.50;4990361;28;20199;-75
2021/01/20 07:39:39;;;;;;;4.03;2.97;;;;;;;4.49;80.08;99050.97;4990687;28;20173;-76
2021/01/20 07:42:05;;;;;;;2.73;2.53;;;;;;;4.38;79.90;99045.00;4991003;28;20645;-74
2021/01/20 07:44:31;;;;;;;3.03;2.57;;;;;;;4.41;79.44;99044.38;4989929;28;20208;-74
2021/01/20 07:47:00;;;;;;;3.43;3.07;;;;;;;4.51;79.34;99032.53;4993368;28;20181;-76
2021/01/20 07:49:25;;;;;;;3.40;3.10;;;;;;;4.41;78.70;99040.88;4977050;28;20211;-77
2021/01/20 07:52:00;;;;;;;3.37;3.03;;;;;;;4.37;78.62;99029.06;4994223;28;20701;-74
2021/01/20 07:54:25;;;;;;;3.90;3.13;;;;;;;4.45;78.05;99031.84;4994097;28;20192;-79
2021/01/20 07:56:51;;;;;;;3.67;3.17;;;;;;;4.50;77.67;99022.81;4993477;28;20189;-74
2021/01/20 07:59:18;;;;;;;3.27;3.00;;;;;;;4.60;76.45;99019.06;4994353;28;20488;-74
2021/01/20 08:01:45;;;;;;;4.87;3.13;;;;;;;4.65;75.87;99019.75;4994015;28;20181;-79
2021/01/20 08:04:21;;;;;;;4.23;3.30;;;;;;;4.71;75.88;99015.81;4993913;28;20216;-76
2021/01/20 08:06:47;;;;;;;3.23;3.00;;;;;;;4.71;75.19;99013.09;4993302;28;20181;-73
2021/01/20 08:09:12;;;;;;;3.90;3.43;;;;;;;4.74;75.15;99015.19;4976242;28;20202;-73
2021/01/20 08:11:39;;;;;;;2.53;2.20;;;;;;;4.85;73.68;99015.75;4993971;28;20177;-74
2021/01/20 08:14:05;;;;;;;4.10;3.60;;;;;;;4.83;74.27;99019.88;4993593;28;20239;-73
2021/01/20 08:16:34;;;;;;;3.40;2.90;;;;;;;4.90;73.20;99018.31;4975700;28;20185;-78
2021/01/20 08:19:02;;;;;;;4.87;4.37;;;;;;;4.91;73.73;99019.13;4993532;28;20181;-76
2021/01/20 08:21:28;;;;;;;3.73;3.23;;;;;;;4.92;73.39;99012.59;4993468;28;20568;-73
2021/01/20 08:23:57;;;;;;;3.13;2.83;;;;;;;4.94;73.32;99013.09;4993518;28;20250;-74
2021/01/20 08:26:28;;;;;;;7.07;5.07;;;;;;;4.92;73.63;99010.72;4993004;28;20256;-78
2021/01/20 08:29:04;;;;;;;5.77;5.13;;;;;;;4.96;73.13;99019.81;4993552;28;20202;-74
2021/01/20 08:31:29;;;;;;;3.20;2.90;;;;;;;5.03;72.86;99012.03;4993367;28;20191;-73
2021/01/20 08:34:14;;;;;;;3.47;3.00;;;;;;;5.13;72.26;99021.00;4993422;28;20542;-73
2021/01/20 08:37:01;;;;;;;4.57;4.00;;;;;;;5.12;71.94;99028.34;4975511;28;20285;-73
2021/01/20 08:39:27;;;;;;;3.10;2.17;;;;;;;5.20;71.71;99027.56;4993339;28;20176;-72
2021/01/20 08:42:34;;;;;;;3.80;3.37;;;;;;;5.24;71.66;99023.16;4975813;28;20665;-74
2021/01/20 08:45:29;;;;;;;3.50;3.20;;;;;;;5.26;71.40;99020.94;4912835;29;20301;-73
2021/01/20 08:48:04;;;;;;;3.07;2.53;;;;;;;5.33;71.28;99023.19;4913110;29;20172;-73
2021/01/20 08:50:29;;;;;;;3.10;2.30;;;;;;;5.35;70.38;99031.78;4972547;28;20555;-74
2021/01/20 08:53:00;;;;;;;5.47;3.03;;;;;;;5.43;70.58;99019.41;4992194;28;20188;-73
2021/01/20 08:55:31;;;;;;;3.20;3.00;;;;;;;5.36;71.12;99026.09;4992565;28;20207;-74
2021/01/20 08:58:22;;;;;;;3.60;3.30;;;;;;;5.35;71.08;99035.31;4991655;28;20209;-74
2021/01/20 09:00:58;;;;;;;2.93;2.73;;;;;;;5.44;69.92;99037.25;4974948;28;20276;-73
2021/01/20 09:03:29;;;;;;;4.90;4.00;;;;;;;5.44;70.90;99050.78;4992128;28;20169;-72
2021/01/20 09:05:56;;;;;;;4.90;4.47;;;;;;;5.48;70.90;99040.91;4974786;28;20180;-74
2021/01/20 09:08:23;;;;;;;5.80;4.67;;;;;;;5.62;70.39;99030.78;4991697;28;20223;-74
2021/01/20 09:10:49;;;;;;;7.37;6.77;;;;;;;5.54;70.91;99040.50;4974750;28;20209;-73
2021/01/20 09:13:17;;;;;;;3.23;2.93;;;;;;;5.47;71.71;99029.28;4974603;28;20208;-72
2021/01/20 09:15:44;;;;;;;3.70;3.40;;;;;;;5.55;71.04;99038.56;4992203;28;20169;-73
2021/01/20 09:18:12;;;;;;;5.53;5.13;;;;;;;5.61;70.87;99030.00;4991559;28;20227;-75
2021/01/20 09:20:37;;;;;;;4.83;4.43;;;;;;;5.60;70.82;99033.00;4992118;28;20169;-73
2021/01/20 09:23:03;;;;;;;4.30;3.77;;;;;;;5.72;71.01;99033.22;4991898;28;20177;-73
2021/01/20 09:25:29;;;;;;;2.80;2.60;;;;;;;5.63;71.11;99035.88;4992008;28;20629;-73
2021/01/20 09:27:55;;;;;;;2.70;2.50;;;;;;;5.72;70.24;99045.97;4991328;28;20205;-73
2021/01/20 09:30:20;;;;;;;2.97;2.67;;;;;;;5.75;70.47;99043.44;4991854;28;20173;-73
2021/01/20 09:32:46;;;;;;;3.47;2.57;;;;;;;5.71;70.53;99047.88;4991825;28;20185;-74
2021/01/20 09:35:13;;;;;;;3.20;2.93;;;;;;;5.75;70.54;99040.72;4974226;28;20169;-74
2021/01/20 09:37:40;;;;;;;2.50;2.30;;;;;;;5.81;70.08;99036.75;4973705;28;20204;-72
2021/01/20 09:40:08;;;;;;;3.50;2.50;;;;;;;5.84;71.35;99027.19;4991585;28;20260;-71
2021/01/20 09:42:34;;;;;;;2.60;2.30;;;;;;;5.85;71.13;99035.00;4991603;28;20685;-73
2021/01/20 09:45:00;;;;;;;4.23;2.43;;;;;;;5.96;71.07;99027.44;4972165;28;20259;-70
2021/01/20 09:47:25;;;;;;;2.87;2.67;;;;;;;5.98;70.95;99025.19;4990451;28;20574;-71
2021/01/20 09:49:51;;;;;;;3.73;3.40;;;;;;;5.92;70.49;99021.81;4991522;28;20169;-72
2021/01/20 09:52:17;;;;;;;2.87;2.60;;;;;;;5.95;70.48;99023.91;4974052;28;20239;-73
2021/01/20 09:54:43;;;;;;;3.70;1.93;;;;;;;6.12;69.50;99025.88;4973951;28;20184;-72
2021/01/20 09:57:09;;;;;;;11.13;8.20;;;;;;;6.10;70.36;99016.44;4990827;28;20181;-70
2021/01/20 09:59:34;;;;;;;3.33;3.00;;;;;;;6.22;69.79;99025.56;4991299;28;20446;-73
2021/01/20 10:01:59;;;;;;;9.63;8.57;;;;;;;6.16;70.31;99026.03;4991521;28;20181;-72
2021/01/20 10:04:25;;;;;;;4.23;3.43;;;;;;;6.34;70.03;99032.25;4991214;28;20569;-71
2021/01/20 10:06:51;;;;;;;5.20;4.70;;;;;;;6.38;69.37;99025.91;4990640;28;20177;-72
2021/01/20 10:09:16;;;;;;;3.57;2.40;;;;;;;6.48;69.13;99035.63;4989544;28;20196;-72
2021/01/20 10:11:43;;;;;;;2.40;1.40;;;;;;;6.55;69.16;99034.03;4985146;28;20193;-71
2021/01/20 10:14:08;;;;;;;2.73;2.23;;;;;;;6.58;68.82;99029.88;4990586;28;20181;-72
2021/01/20 10:16:33;;;;;;;3.27;1.90;;;;;;;6.60;68.71;99030.34;4990521;28;20169;-71
2021/01/20 10:18:58;;;;;;;2.70;2.03;;;;;;;6.55;69.20;99022.38;4990999;28;20184;-70
2021/01/20 10:21:24;;;;;;;2.27;2.07;;;;;;;6.66;68.77;99012.81;4990965;28;20569;-75
2021/01/20 10:23:49;;;;;;;2.03;1.83;;;;;;;6.71;68.42;99015.34;4974159;28;20287;-72
2021/01/20 10:26:14;;;;;;;2.27;2.07;;;;;;;6.84;69.06;99019.00;4990146;28;20276;-75
2021/01/20 10:28:43;;;;;;;0.63;0.50;;;;;;;6.96;67.49;99027.31;4989561;28;20224;-75
2021/01/20 10:31:08;;;;;;;2.97;2.10;;;;;;;6.99;67.12;99034.00;4989590;28;20177;-72
2021/01/20 10:33:33;;;;;;;2.10;2.00;;;;;;;6.98;67.96;99021.56;4991014;28;20219;-73
2021/01/20 10:35:59;;;;;;;2.00;1.87;;;;;;;7.03;67.71;99035.75;4990971;28;20712;-73
2021/01/20 10:38:24;;;;;;;3.30;2.03;;;;;;;6.94;67.80;99015.94;4991125;28;20177;-75
2021/01/20 10:40:49;;;;;;;3.27;2.67;;;;;;;6.96;68.26;99004.78;4973788;28;20264;-74
2021/01/20 10:43:15;;;;;;;2.23;2.03;;;;;;;7.08;67.68;99013.84;4990821;28;20661;-75
2021/01/20 10:45:44;;;;;;;3.20;2.30;;;;;;;6.97;67.17;99006.38;4990976;28;20630;-76
2021/01/20 10:48:10;;;;;;;2.90;2.70;;;;;;;7.02;68.26;98990.69;4990813;28;20261;-75
2021/01/20 10:50:35;;;;;;;2.37;1.70;;;;;;;7.17;67.68;98997.53;4991221;28;20264;-75
2021/01/20 10:53:01;;;;;;;2.70;1.90;;;;;;;7.12;68.15;99005.88;4973677;28;20200;-75
2021/01/20 10:55:26;;;;;;;7.20;2.77;;;;;;;7.20;66.35;98991.44;4973776;28;20740;-78
2021/01/20 10:57:51;;;;;;;4.03;3.13;;;;;;;7.24;66.71;98984.25;4973262;28;20756;-76
2021/01/20 11:00:18;;;;;;;7.17;2.57;;;;;;;7.26;66.46;98998.31;4991080;28;20541;-77
2021/01/20 11:02:43;;;;;;;2.97;2.20;;;;;;;7.35;66.14;98999.06;4991101;28;20538;-75
2021/01/20 11:05:10;;;;;;;5.70;4.20;;;;;;;7.36;65.75;98995.22;4990788;28;20208;-73
2021/01/20 11:07:38;;;;;;;65.30;8.83;;;;;;;7.43;65.83;98998.25;4990661;28;20169;-73
2021/01/20 11:10:05;;;;;;;4.77;2.63;;;;;;;7.45;65.27;98995.19;4991126;28;20161;-72
2021/01/20 11:12:31;;;;;;;2.40;1.67;;;;;;;7.53;65.32;98986.22;4990951;28;20174;-73
2021/01/20 11:14:56;;;;;;;6.37;2.30;;;;;;;7.54;65.67;98989.75;4990960;28;20173;-72
2021/01/20 11:17:21;;;;;;;3.20;1.87;;;;;;;7.62;65.02;98997.03;4990672;28;20264;-74
2021/01/20 11:19:46;;;;;;;6.90;2.20;;;;;;;7.74;65.23;99000.66;4974957;28;20184;-73
2021/01/20 11:22:12;;;;;;;3.90;2.07;;;;;;;7.74;66.12;98983.53;4977250;28;20645;-72
2021/01/20 11:24:37;;;;;;;5.70;1.80;;;;;;;7.87;65.75;98989.88;4994696;28;20338;-75
2021/01/20 11:27:03;;;;;;;1.70;1.60;;;;;;;7.73;66.42;98979.25;4994218;28;20264;-74
2021/01/20 11:29:28;;;;;;;1.57;1.47;;;;;;;7.92;65.46;98973.34;4994409;28;20177;-75
2021/01/20 11:31:53;;;;;;;1.43;1.33;;;;;;;7.99;64.93;98979.09;4994566;28;20411;-74
2021/01/20 11:34:18;;;;;;;7.10;2.10;;;;;;;7.94;65.37;98981.97;4976893;28;20216;-77
2021/01/20 11:36:44;;;;;;;1.70;1.60;;;;;;;8.06;64.05;98984.78;4992226;28;20208;-74
2021/01/20 11:39:09;;;;;;;1.67;1.40;;;;;;;8.19;64.02;98989.19;4994176;28;20181;-75
2021/01/20 11:41:34;;;;;;;1.77;1.40;;;;;;;8.24;65.09;98990.91;4994600;28;20170;-77
2021/01/20 11:44:00;;;;;;;1.50;1.40;;;;;;;8.38;64.16;99004.25;4993865;28;20197;-73
2021/01/20 11:46:26;;;;;;;2.00;1.80;;;;;;;8.42;63.46;98997.06;4976319;28;20671;-77